createdAt,value
2022-10-31T00:00:59.871Z,101635.22
2022-10-31T00:03:27.307Z,101629.75
2022-10-31T00:05:54.126Z,101624.53
2022-10-31T00:08:20.512Z,101620.38
2022-10-31T00:10:46.899Z,101632.00
2022-10-31T00:13:14.297Z,101631.16
2022-10-31T00:15:41.325Z,101640.88
2022-10-31T00:18:09.157Z,101638.25
2022-10-31T00:20:35.683Z,101632.94
2022-10-31T00:23:02.547Z,101637.47
2022-10-31T00:25:29.828Z,101631.34
2022-10-31T00:27:56.671Z,101630.28
2022-10-31T00:30:23.233Z,101639.75
2022-10-31T00:32:49.642Z,101628.22
2022-10-31T00:35:17.763Z,101625.66
2022-10-31T00:37:45.113Z,101630.41
2022-10-31T00:40:11.886Z,101638.72
2022-10-31T00:42:39.614Z,101633.22
2022-10-31T00:45:06.153Z,101633.16
2022-10-31T00:47:32.526Z,101635.97
2022-10-31T00:49:58.887Z,101643.00
2022-10-31T00:52:25.294Z,101647.84
2022-10-31T00:54:51.678Z,101651.84
2022-10-31T00:57:18.180Z,101647.16
2022-10-31T00:59:44.702Z,101655.25
2022-10-31T01:02:11.477Z,101657.34
2022-10-31T01:04:38.000Z,101657.34
2022-10-31T01:07:04.630Z,101659.44
2022-10-31T01:09:31.132Z,101648.00
2022-10-31T01:11:59.380Z,101641.97
2022-10-31T01:14:25.885Z,101652.75
2022-10-31T01:16:52.285Z,101648.22
2022-10-31T01:19:18.724Z,101646.25
2022-10-31T01:21:45.123Z,101643.28
2022-10-31T01:24:11.514Z,101651.09
2022-10-31T01:26:38.649Z,101639.09
2022-10-31T01:29:06.454Z,101638.31
2022-10-31T01:31:34.467Z,101635.97
2022-10-31T01:34:01.272Z,101638.88
2022-10-31T01:36:29.473Z,101635.47
2022-10-31T01:39:00.236Z,101622.50
2022-10-31T01:41:31.504Z,101620.03
2022-10-31T01:43:59.371Z,101617.56
2022-10-31T01:46:37.841Z,101612.19
2022-10-31T01:49:12.784Z,101615.28
2022-10-31T01:51:42.899Z,101623.56
2022-10-31T01:54:12.562Z,101616.47
2022-10-31T01:56:40.921Z,101610.81
2022-10-31T01:59:10.104Z,101610.81
2022-10-31T02:01:36.936Z,101596.94
2022-10-31T02:04:03.533Z,101602.47
2022-10-31T02:06:41.090Z,101609.16
2022-10-31T02:09:07.626Z,101606.88
2022-10-31T02:11:35.667Z,101601.38
2022-10-31T02:14:02.596Z,101614.09
2022-10-31T02:16:29.201Z,101618.34
2022-10-31T02:18:56.388Z,101611.28
2022-10-31T02:22:01.668Z,101611.38
2022-10-31T02:24:46.926Z,101610.97
2022-10-31T02:27:13.389Z,101611.53
2022-10-31T02:29:55.403Z,101614.19
2022-10-31T02:32:29.029Z,101621.19
2022-10-31T02:34:59.624Z,101627.53
2022-10-31T02:37:30.529Z,101629.13
2022-10-31T02:40:06.269Z,101618.94
2022-10-31T02:43:27.464Z,101621.59
2022-10-31T02:46:08.235Z,101637.00
2022-10-31T02:48:38.643Z,101632.97
2022-10-31T02:51:05.855Z,101622.88
2022-10-31T02:53:33.363Z,101609.50
2022-10-31T02:56:07.420Z,101617.44
2022-10-31T02:58:35.971Z,101612.13
2022-10-31T03:01:11.116Z,101611.28
2022-10-31T03:03:46.949Z,101617.19
2022-10-31T03:06:21.522Z,101613.56
2022-10-31T03:09:04.129Z,101617.53
2022-10-31T03:11:33.583Z,101622.25
2022-10-31T03:14:26.334Z,101625.81
2022-10-31T03:17:00.853Z,101626.59
2022-10-31T03:19:30.262Z,101626.59
2022-10-31T03:21:59.784Z,101618.59
2022-10-31T03:24:29.646Z,101610.72
2022-10-31T03:26:58.615Z,101613.03
2022-10-31T03:29:28.528Z,101611.84
2022-10-31T03:31:54.935Z,101601.84
2022-10-31T03:34:23.069Z,101608.47
2022-10-31T03:36:55.927Z,101618.53
2022-10-31T03:39:23.584Z,101611.69
2022-10-31T03:41:55.668Z,101598.56
2022-10-31T03:44:23.428Z,101604.09
2022-10-31T03:46:58.106Z,101602.56
2022-10-31T03:49:24.559Z,101611.41
2022-10-31T03:52:07.095Z,101609.63
2022-10-31T03:54:39.917Z,101607.16
2022-10-31T03:57:32.868Z,101607.31
2022-10-31T04:00:04.009Z,101608.94
2022-10-31T04:02:35.088Z,101606.53
2022-10-31T04:05:02.432Z,101603.53
2022-10-31T04:07:34.234Z,101603.00
2022-10-31T04:10:01.697Z,101603.25
2022-10-31T04:12:29.360Z,101606.50
2022-10-31T04:15:10.619Z,101608.03
2022-10-31T04:17:41.756Z,101613.00
2022-10-31T04:20:08.841Z,101617.09
2022-10-31T04:22:35.367Z,101613.53
2022-10-31T04:25:01.800Z,101610.97
2022-10-31T04:27:28.233Z,101606.59
2022-10-31T04:29:54.770Z,101596.84
2022-10-31T04:32:21.247Z,101602.03
2022-10-31T04:34:47.681Z,101597.94
2022-10-31T04:37:14.087Z,101604.53
2022-10-31T04:39:40.470Z,101598.41
2022-10-31T04:42:29.720Z,101602.41
2022-10-31T04:44:58.197Z,101590.22
2022-10-31T04:47:24.615Z,101586.19
2022-10-31T04:49:52.821Z,101590.72
2022-10-31T04:52:19.260Z,101596.25
2022-10-31T04:54:45.914Z,101593.69
2022-10-31T04:57:41.972Z,101590.72
2022-10-31T05:00:09.228Z,101583.66
2022-10-31T05:02:37.644Z,101585.00
2022-10-31T05:05:07.402Z,101574.50
2022-10-31T05:07:38.759Z,101567.19
2022-10-31T05:10:05.505Z,101568.03
2022-10-31T05:12:32.553Z,101571.38
2022-10-31T05:15:08.087Z,101568.75
2022-10-31T05:17:54.792Z,101559.97
2022-10-31T05:20:59.635Z,101560.31
2022-10-31T05:23:33.090Z,101572.31
2022-10-31T05:26:00.088Z,101572.06
2022-10-31T05:28:26.939Z,101570.97
2022-10-31T05:30:54.060Z,101576.16
2022-10-31T05:33:32.647Z,101576.94
2022-10-31T05:36:19.512Z,101570.28
2022-10-31T05:38:54.832Z,101570.97
2022-10-31T05:41:26.008Z,101568.91
2022-10-31T05:44:00.323Z,101576.94
2022-10-31T05:46:29.377Z,101573.34
2022-10-31T05:49:14.263Z,101564.91
2022-10-31T05:51:46.497Z,101563.44
2022-10-31T05:54:16.035Z,101564.63
2022-10-31T05:56:45.037Z,101566.50
2022-10-31T05:59:12.192Z,101566.34
2022-10-31T06:01:39.783Z,101563.88
2022-10-31T06:04:13.257Z,101563.34
2022-10-31T06:06:39.806Z,101560.03
2022-10-31T06:09:07.247Z,101565.22
2022-10-31T06:11:35.900Z,101570.72
2022-10-31T06:14:02.426Z,101568.03
2022-10-31T06:16:35.494Z,101566.00
2022-10-31T06:19:21.134Z,101556.03
2022-10-31T06:21:47.592Z,101559.44
2022-10-31T06:24:14.248Z,101558.66
2022-10-31T06:27:00.696Z,101563.28
2022-10-31T06:29:27.233Z,101555.25
2022-10-31T06:32:05.556Z,101558.78
2022-10-31T06:34:37.299Z,101563.19
2022-10-31T06:37:03.727Z,101562.59
2022-10-31T06:39:31.055Z,101561.72
2022-10-31T06:41:58.027Z,101559.75
2022-10-31T06:44:26.448Z,101566.78
2022-10-31T06:46:55.480Z,101572.19
2022-10-31T06:49:37.076Z,101569.97
2022-10-31T06:52:09.523Z,101570.22
2022-10-31T06:54:35.975Z,101568.44
2022-10-31T06:57:03.411Z,101564.69
2022-10-31T06:59:30.007Z,101568.03
2022-10-31T07:02:14.199Z,101561.50
2022-10-31T07:04:42.804Z,101557.66
2022-10-31T07:07:12.536Z,101575.53
2022-10-31T07:09:39.628Z,101568.56
2022-10-31T07:12:07.711Z,101578.09
2022-10-31T07:14:38.100Z,101577.25
2022-10-31T07:17:05.979Z,101576.38
2022-10-31T07:19:36.807Z,101582.75
2022-10-31T07:22:03.273Z,101582.69
2022-10-31T07:24:31.384Z,101578.09
2022-10-31T07:27:37.628Z,101578.63
2022-10-31T07:30:09.180Z,101576.59
2022-10-31T07:32:48.887Z,101575.47
2022-10-31T07:35:26.892Z,101580.06
2022-10-31T07:37:58.469Z,101582.88
2022-10-31T07:40:25.785Z,101581.94
2022-10-31T07:42:53.721Z,101583.41
2022-10-31T07:45:55.657Z,101600.25
2022-10-31T07:49:02.726Z,101606.53
2022-10-31T07:51:47.967Z,101599.56
2022-10-31T07:54:34.424Z,101600.88
2022-10-31T07:57:00.886Z,101596.75
2022-10-31T07:59:28.251Z,101592.44
2022-10-31T08:01:55.103Z,101587.59
2022-10-31T08:04:30.384Z,101586.47
2022-10-31T08:07:15.477Z,101582.22
2022-10-31T08:09:46.790Z,101576.53
2022-10-31T08:12:19.765Z,101580.25
2022-10-31T08:14:46.685Z,101579.81
2022-10-31T08:17:14.977Z,101575.66
2022-10-31T08:19:48.783Z,101573.63
2022-10-31T08:22:16.572Z,101571.50
2022-10-31T08:24:44.034Z,101573.31
2022-10-31T08:27:10.408Z,101578.66
2022-10-31T08:29:39.051Z,101580.19
2022-10-31T08:32:05.550Z,101578.16
2022-10-31T08:34:50.448Z,101581.38
2022-10-31T08:37:35.447Z,101576.84
2022-10-31T08:40:03.729Z,101571.47
2022-10-31T08:42:34.124Z,101572.09
2022-10-31T08:45:01.350Z,101569.59
2022-10-31T08:47:28.821Z,101570.97
2022-10-31T08:49:56.454Z,101568.41
2022-10-31T08:52:44.198Z,101567.19
2022-10-31T08:55:11.356Z,101557.19
2022-10-31T08:58:02.831Z,101556.91
2022-10-31T09:00:37.653Z,101557.97
2022-10-31T09:03:12.775Z,101552.78
2022-10-31T09:05:39.523Z,101549.56
2022-10-31T09:08:16.052Z,101547.31
2022-10-31T09:10:45.183Z,101549.03
2022-10-31T09:13:15.366Z,101551.31
2022-10-31T09:16:01.803Z,101538.78
2022-10-31T09:18:32.885Z,101534.31
2022-10-31T09:21:00.248Z,101529.63
2022-10-31T09:23:28.185Z,101527.13
2022-10-31T09:25:55.694Z,101527.97
2022-10-31T09:28:33.727Z,101525.56
2022-10-31T09:31:12.280Z,101528.47
2022-10-31T09:33:57.174Z,101527.06
2022-10-31T09:36:35.554Z,101514.34
2022-10-31T09:39:03.770Z,101509.69
2022-10-31T09:41:42.155Z,101512.81
2022-10-31T09:44:19.750Z,101501.03
2022-10-31T09:46:58.119Z,101493.72
2022-10-31T09:49:36.675Z,101496.00
2022-10-31T09:54:50.686Z,101500.28
2022-10-31T09:57:23.336Z,101495.06
2022-10-31T09:59:50.263Z,101494.09
2022-10-31T10:02:18.896Z,101495.41
2022-10-31T10:04:50.760Z,101485.22
2022-10-31T10:07:22.477Z,101480.97
2022-10-31T10:10:36.199Z,101474.72
2022-10-31T10:13:34.269Z,101465.94
2022-10-31T10:16:04.299Z,101464.59
2022-10-31T10:18:49.648Z,101466.28
2022-10-31T10:21:25.222Z,101465.22
2022-10-31T10:23:54.729Z,101461.75
2022-10-31T10:26:22.787Z,101456.25
2022-10-31T10:29:02.091Z,101445.63
2022-10-31T10:31:30.352Z,101440.69
2022-10-31T10:34:01.240Z,101432.91
2022-10-31T10:36:31.825Z,101443.13
2022-10-31T10:38:58.201Z,101443.88
2022-10-31T10:41:25.248Z,101439.78
2022-10-31T10:43:52.166Z,101430.50
2022-10-31T10:46:49.647Z,101421.03
2022-10-31T10:49:19.219Z,101411.75
2022-10-31T10:55:10.860Z,101398.88
2022-10-31T10:57:56.380Z,101399.09
2022-10-31T11:00:22.739Z,101405.88
2022-10-31T11:02:49.527Z,101408.44
2022-10-31T11:05:21.180Z,101417.56
2022-10-31T11:07:47.560Z,101406.53
2022-10-31T11:10:17.375Z,101395.38
2022-10-31T11:12:45.149Z,101390.38
2022-10-31T11:15:19.555Z,101387.41
2022-10-31T11:17:49.147Z,101375.94
2022-10-31T11:20:18.129Z,101372.44
2022-10-31T11:22:46.781Z,101368.47
2022-10-31T11:25:23.607Z,101364.63
2022-10-31T11:28:19.649Z,101369.84
2022-10-31T11:30:51.308Z,101373.03
2022-10-31T11:33:19.995Z,101371.44
2022-10-31T11:35:48.412Z,101365.50
2022-10-31T11:38:18.503Z,101370.56
2022-10-31T11:40:56.345Z,101365.00
2022-10-31T11:43:23.335Z,101358.09
2022-10-31T11:45:50.068Z,101340.31
2022-10-31T11:48:17.404Z,101329.50
2022-10-31T11:50:48.315Z,101322.41
2022-10-31T11:53:16.720Z,101314.69
2022-10-31T11:55:43.727Z,101319.06
2022-10-31T11:58:23.615Z,101310.00
2022-10-31T12:00:51.268Z,101305.16
2022-10-31T12:03:23.918Z,101306.56
2022-10-31T12:05:54.020Z,101308.13
2022-10-31T12:08:20.650Z,101305.81
2022-10-31T12:11:06.119Z,101298.69
2022-10-31T12:13:35.447Z,101299.56
2022-10-31T12:16:05.153Z,101290.13
2022-10-31T12:18:51.833Z,101284.31
2022-10-31T12:21:24.208Z,101267.53
2022-10-31T12:23:56.800Z,101273.47
2022-10-31T12:26:42.012Z,101263.69
2022-10-31T12:29:23.724Z,101267.09
2022-10-31T12:31:56.329Z,101251.34
2022-10-31T12:34:28.820Z,101254.84
2022-10-31T12:36:58.307Z,101241.44
2022-10-31T12:39:27.881Z,101250.63
2022-10-31T12:42:13.938Z,101242.91
2022-10-31T12:44:43.421Z,101240.00
2022-10-31T12:47:22.114Z,101235.63
2022-10-31T12:50:07.368Z,101221.97
2022-10-31T12:52:42.848Z,101217.59
2022-10-31T12:55:35.626Z,101206.44
2022-10-31T12:58:04.884Z,101203.44
2022-10-31T13:00:33.291Z,101195.19
2022-10-31T13:03:18.721Z,101189.38
2022-10-31T13:05:47.716Z,101176.56
2022-10-31T13:08:19.802Z,101173.16
2022-10-31T13:10:56.883Z,101156.69
2022-10-31T13:13:38.584Z,101150.88
2022-10-31T13:16:08.703Z,101149.28
2022-10-31T13:18:39.578Z,101138.25
2022-10-31T13:21:10.168Z,101133.06
2022-10-31T13:23:50.769Z,101138.16
2022-10-31T13:26:24.178Z,101133.34
2022-10-31T13:28:58.474Z,101148.09
2022-10-31T13:31:24.926Z,101145.97
2022-10-31T13:33:54.089Z,101150.56
2022-10-31T13:36:20.451Z,101142.47
2022-10-31T13:38:49.955Z,101133.16
2022-10-31T13:41:19.415Z,101134.97
2022-10-31T13:44:04.808Z,101129.38
2022-10-31T13:46:34.434Z,101112.16
2022-10-31T13:49:01.138Z,101103.78
2022-10-31T13:51:31.875Z,101097.38
2022-10-31T13:54:06.786Z,101079.19
2022-10-31T13:56:34.406Z,101076.38
2022-10-31T13:59:12.010Z,101090.63
2022-10-31T14:01:46.850Z,101074.69
2022-10-31T14:04:23.973Z,101083.25
2022-10-31T14:07:11.980Z,101071.50
2022-10-31T14:09:38.321Z,101070.28
2022-10-31T14:12:07.206Z,101063.28
2022-10-31T14:14:42.705Z,101055.28
2022-10-31T14:17:16.972Z,101046.72
2022-10-31T14:19:43.427Z,101049.41
2022-10-31T14:22:20.501Z,101036.63
2022-10-31T14:24:46.924Z,101036.75
2022-10-31T14:27:25.714Z,101038.19
2022-10-31T14:29:52.163Z,101027.53
2022-10-31T14:32:26.505Z,101027.28
2022-10-31T14:34:52.982Z,101020.06
2022-10-31T14:37:31.342Z,101003.84
2022-10-31T14:40:00.573Z,101001.78
2022-10-31T14:42:46.055Z,100994.63
2022-10-31T14:45:18.763Z,100996.13
2022-10-31T14:47:56.866Z,100992.75
2022-10-31T14:50:24.040Z,101000.28
2022-10-31T14:52:52.229Z,100983.81
2022-10-31T14:55:19.498Z,100987.50
2022-10-31T14:57:55.074Z,100973.41
2022-10-31T15:00:22.799Z,100971.91
2022-10-31T15:03:04.165Z,100977.47
2022-10-31T15:05:31.445Z,100974.38
2022-10-31T15:07:58.969Z,100967.50
2022-10-31T15:10:26.175Z,100979.44
2022-10-31T15:12:52.886Z,100989.09
2022-10-31T15:15:22.300Z,100982.56
2022-10-31T15:18:01.565Z,100973.72
2022-10-31T15:20:30.011Z,100970.94
2022-10-31T15:22:57.303Z,100973.19
2022-10-31T15:25:24.699Z,100970.81
2022-10-31T15:27:52.215Z,100960.91
2022-10-31T15:30:21.875Z,100952.91
2022-10-31T15:32:57.516Z,100951.41
2022-10-31T15:35:29.288Z,100945.47
2022-10-31T15:37:57.230Z,100945.63
2022-10-31T15:40:24.966Z,100934.72
2022-10-31T15:42:59.273Z,100936.53
2022-10-31T15:45:27.697Z,100935.94
2022-10-31T15:47:54.133Z,100929.16
2022-10-31T15:50:23.555Z,100928.88
2022-10-31T15:52:51.199Z,100916.09
2022-10-31T15:55:20.405Z,100912.13
2022-10-31T15:57:48.541Z,100913.97
2022-10-31T16:00:24.062Z,100910.47
2022-10-31T16:02:50.494Z,100906.28
2022-10-31T16:05:20.512Z,100912.31
2022-10-31T16:07:50.840Z,100894.19
2022-10-31T16:10:26.137Z,100901.00
2022-10-31T16:12:53.243Z,100898.22
2022-10-31T16:15:20.903Z,100900.28
2022-10-31T16:17:51.531Z,100895.09
2022-10-31T16:20:26.340Z,100898.38
2022-10-31T16:22:54.276Z,100899.16
2022-10-31T16:25:25.346Z,100895.16
2022-10-31T16:27:54.385Z,100894.34
2022-10-31T16:30:37.082Z,100890.50
2022-10-31T16:33:04.072Z,100888.91
2022-10-31T16:35:35.635Z,100890.81
2022-10-31T16:38:02.511Z,100887.41
2022-10-31T16:40:29.260Z,100889.53
2022-10-31T16:42:57.603Z,100883.72
2022-10-31T16:45:26.482Z,100894.25
2022-10-31T16:47:53.190Z,100892.72
2022-10-31T16:50:26.682Z,100892.72
2022-10-31T16:53:12.858Z,100890.16
2022-10-31T16:55:42.939Z,100886.91
2022-10-31T16:58:12.774Z,100877.53
2022-10-31T17:00:39.172Z,100878.91
2022-10-31T17:03:05.710Z,100893.78
2022-10-31T17:05:32.915Z,100887.97
2022-10-31T17:08:00.181Z,100882.28
2022-10-31T17:10:27.720Z,100890.72
2022-10-31T17:12:54.276Z,100887.84
2022-10-31T17:15:25.226Z,100891.22
2022-10-31T17:17:52.438Z,100883.75
2022-10-31T17:20:23.320Z,100885.81
2022-10-31T17:22:49.771Z,100887.66
2022-10-31T17:25:17.819Z,100881.03
2022-10-31T17:27:47.282Z,100884.28
2022-10-31T17:30:14.409Z,100885.78
2022-10-31T17:32:41.358Z,100881.69
2022-10-31T17:35:08.656Z,100886.47
2022-10-31T17:37:35.134Z,100882.38
2022-10-31T17:40:02.225Z,100879.38
2022-10-31T17:42:28.685Z,100882.63
2022-10-31T17:44:55.210Z,100885.78
2022-10-31T17:47:21.622Z,100882.25
2022-10-31T17:49:48.155Z,100880.44
2022-10-31T17:52:14.554Z,100878.41
2022-10-31T17:54:40.969Z,100883.34
2022-10-31T17:57:07.424Z,100874.41
2022-10-31T17:59:33.919Z,100880.97
2022-10-31T18:02:00.674Z,100877.44
2022-10-31T18:04:28.535Z,100878.06
2022-10-31T18:06:55.262Z,100881.31
2022-10-31T18:09:21.752Z,100865.94
2022-10-31T18:11:48.122Z,100874.91
2022-10-31T18:14:14.540Z,100875.16
2022-10-31T18:16:41.000Z,100871.56
2022-10-31T18:19:07.541Z,100863.34
2022-10-31T18:21:33.964Z,100867.69
2022-10-31T18:24:00.829Z,100877.44
2022-10-31T18:26:27.776Z,100868.53
2022-10-31T18:28:54.488Z,100866.72
2022-10-31T18:31:21.162Z,100872.50
2022-10-31T18:33:47.655Z,100872.03
2022-10-31T18:36:14.243Z,100869.63
2022-10-31T18:38:41.618Z,100864.81
2022-10-31T18:41:08.696Z,100866.25
2022-10-31T18:43:35.129Z,100860.22
2022-10-31T18:46:06.196Z,100858.28
2022-10-31T18:48:32.983Z,100867.19
2022-10-31T18:51:06.326Z,100852.84
2022-10-31T18:53:33.220Z,100855.63
2022-10-31T18:55:59.816Z,100845.13
2022-10-31T18:58:27.174Z,100844.16
2022-10-31T19:00:54.098Z,100846.47
2022-10-31T19:03:25.660Z,100847.19
2022-10-31T19:05:56.314Z,100844.78
2022-10-31T19:08:22.869Z,100842.72
2022-10-31T19:10:49.461Z,100839.22
2022-10-31T19:13:16.020Z,100834.88
2022-10-31T19:15:42.694Z,100830.31
2022-10-31T19:18:09.289Z,100834.63
2022-10-31T19:20:37.477Z,100827.16
2022-10-31T19:23:04.310Z,100829.19
2022-10-31T19:25:30.882Z,100825.81
2022-10-31T19:27:58.039Z,100826.38
2022-10-31T19:30:24.539Z,100820.53
2022-10-31T19:32:53.801Z,100827.56
2022-10-31T19:35:20.296Z,100814.97
2022-10-31T19:37:46.732Z,100810.22
2022-10-31T19:40:13.584Z,100805.88
2022-10-31T19:42:39.979Z,100807.69
2022-10-31T19:45:06.735Z,100807.97
2022-10-31T19:47:33.354Z,100801.94
2022-10-31T19:49:59.735Z,100808.75
2022-10-31T19:52:26.220Z,100807.94
2022-10-31T19:54:52.675Z,100810.56
2022-10-31T19:57:30.766Z,100813.81
2022-10-31T20:00:05.829Z,100806.47
2022-10-31T20:02:38.146Z,100809.22
2022-10-31T20:05:04.754Z,100810.53
2022-10-31T20:07:31.150Z,100800.53
2022-10-31T20:09:57.536Z,100796.66
2022-10-31T20:12:23.921Z,100789.94
2022-10-31T20:14:50.317Z,100782.00
2022-10-31T20:17:16.690Z,100787.31
2022-10-31T20:19:43.232Z,100786.69
2022-10-31T20:22:11.027Z,100777.44
2022-10-31T20:24:37.402Z,100778.16
2022-10-31T20:27:05.670Z,100774.78
2022-10-31T20:29:32.064Z,100779.69
2022-10-31T20:31:58.463Z,100780.78
2022-10-31T20:34:25.098Z,100766.44
2022-10-31T20:36:51.604Z,100767.00
2022-10-31T20:39:17.991Z,100766.78
2022-10-31T20:41:44.407Z,100760.50
2022-10-31T20:44:10.811Z,100754.63
2022-10-31T20:46:37.226Z,100748.00
2022-10-31T20:49:03.803Z,100739.69
2022-10-31T20:51:31.712Z,100738.59
2022-10-31T20:53:59.231Z,100735.56
2022-10-31T20:56:26.450Z,100735.78
2022-10-31T20:58:54.302Z,100739.06
2022-10-31T21:01:22.399Z,100735.06
2022-10-31T21:03:49.309Z,100732.31
2022-10-31T21:06:16.536Z,100741.19
2022-10-31T21:08:43.348Z,100738.50
2022-10-31T21:11:11.613Z,100733.03
2022-10-31T21:13:40.760Z,100741.66
2022-10-31T21:16:09.273Z,100738.28
2022-10-31T21:18:36.415Z,100736.25
2022-10-31T21:21:10.102Z,100724.72
2022-10-31T21:23:36.667Z,100721.09
2022-10-31T21:26:11.552Z,100727.69
2022-10-31T21:28:38.047Z,100721.66
2022-10-31T21:31:08.522Z,100716.66
2022-10-31T21:33:35.339Z,100711.47
2022-10-31T21:36:02.129Z,100704.38
2022-10-31T21:38:28.675Z,100703.88
2022-10-31T21:41:05.384Z,100709.34
2022-10-31T21:43:34.628Z,100710.84
2022-10-31T21:46:11.652Z,100701.56
2022-10-31T21:48:42.276Z,100707.59
2022-10-31T21:51:10.246Z,100710.09
2022-10-31T21:53:55.494Z,100709.50
2022-10-31T21:56:22.628Z,100693.94
2022-10-31T21:58:49.024Z,100705.97
2022-10-31T22:01:15.597Z,100703.81
2022-10-31T22:03:42.503Z,100703.00
2022-10-31T22:06:10.260Z,100688.06
2022-10-31T22:08:36.755Z,100695.44
2022-10-31T22:11:04.068Z,100695.06
2022-10-31T22:13:31.568Z,100689.13
2022-10-31T22:16:05.156Z,100686.00
2022-10-31T22:18:31.537Z,100685.13
2022-10-31T22:21:02.098Z,100685.88
2022-10-31T22:23:28.858Z,100676.84
2022-10-31T22:25:55.340Z,100668.91
2022-10-31T22:28:21.694Z,100679.34
2022-10-31T22:30:48.171Z,100674.56
2022-10-31T22:33:14.578Z,100664.47
2022-10-31T22:35:40.998Z,100665.91
2022-10-31T22:38:07.359Z,100676.50
2022-10-31T22:40:34.036Z,100670.56
2022-10-31T22:43:00.723Z,100675.97
2022-10-31T22:45:27.298Z,100669.88
2022-10-31T22:47:53.656Z,100671.09
2022-10-31T22:50:20.036Z,100660.13
2022-10-31T22:52:46.445Z,100667.47
2022-10-31T22:55:15.306Z,100673.25
2022-10-31T22:57:41.776Z,100673.25
2022-10-31T23:00:08.807Z,100667.72
2022-10-31T23:02:35.523Z,100669.88
2022-10-31T23:05:02.060Z,100674.34
2022-10-31T23:07:32.869Z,100675.28
2022-10-31T23:09:59.543Z,100672.59
2022-10-31T23:12:44.744Z,100670.25
2022-10-31T23:15:11.115Z,100671.44
2022-10-31T23:17:39.111Z,100670.09
2022-10-31T23:20:06.893Z,100675.03
2022-10-31T23:22:33.377Z,100670.47
2022-10-31T23:24:59.806Z,100660.34
2022-10-31T23:27:27.008Z,100665.28
2022-10-31T23:29:57.545Z,100662.16
2022-10-31T23:32:28.125Z,100661.66
2022-10-31T23:34:55.684Z,100663.06
2022-10-31T23:37:23.050Z,100659.09
2022-10-31T23:39:49.510Z,100664.94
2022-10-31T23:42:16.216Z,100663.41
2022-10-31T23:44:42.938Z,100660.41
2022-10-31T23:47:09.344Z,100657.09
2022-10-31T23:49:35.748Z,100658.63
2022-10-31T23:52:03.103Z,100655.38
2022-10-31T23:54:29.577Z,100655.19
2022-10-31T23:56:56.203Z,100652.59
2022-10-31T23:59:22.808Z,100654.22
